createdAt,value
2022-12-11T00:00:29.041Z,26.73
2022-12-11T00:02:56.862Z,25.07
2022-12-11T00:05:24.275Z,27.37
2022-12-11T00:07:51.304Z,27.00
2022-12-11T00:10:18.466Z,27.90
2022-12-11T00:12:45.381Z,27.20
2022-12-11T00:15:12.957Z,29.27
2022-12-11T00:17:40.196Z,28.23
2022-12-11T00:20:08.900Z,25.83
2022-12-11T00:22:35.994Z,28.77
2022-12-11T00:25:03.206Z,30.03
2022-12-11T00:27:30.089Z,28.57
2022-12-11T00:29:57.132Z,28.70
2022-12-11T00:32:23.997Z,28.50
2022-12-11T00:34:51.142Z,31.70
2022-12-11T00:37:18.124Z,26.80
2022-12-11T00:39:45.717Z,30.90
2022-12-11T00:42:12.731Z,30.80
2022-12-11T00:44:39.642Z,31.97
2022-12-11T00:47:06.555Z,31.03
2022-12-11T00:49:33.594Z,30.93
2022-12-11T00:52:00.562Z,32.50
2022-12-11T00:54:27.403Z,28.00
2022-12-11T00:56:58.876Z,26.87
2022-12-11T00:59:25.780Z,28.63
2022-12-11T01:01:52.744Z,26.60
2022-12-11T01:04:19.722Z,32.20
2022-12-11T01:06:46.736Z,29.90
2022-12-11T01:09:32.114Z,31.27
2022-12-11T01:11:59.077Z,29.83
2022-12-11T01:14:27.050Z,30.23
2022-12-11T01:16:54.046Z,24.57
2022-12-11T01:19:21.036Z,31.00
2022-12-11T01:21:48.064Z,28.47
2022-12-11T01:24:14.978Z,28.50
2022-12-11T01:26:41.921Z,27.57
2022-12-11T01:29:08.821Z,22.87
2022-12-11T01:31:35.721Z,29.00
2022-12-11T01:34:02.690Z,24.23
2022-12-11T01:36:29.641Z,25.10
2022-12-11T01:38:56.802Z,24.60
2022-12-11T01:41:23.755Z,27.37
2022-12-11T01:44:29.236Z,23.13
2022-12-11T01:46:56.650Z,21.87
2022-12-11T01:49:28.197Z,24.70
2022-12-11T01:52:19.397Z,17.93
2022-12-11T01:54:48.336Z,27.67
2022-12-11T01:57:16.428Z,26.20
2022-12-11T01:59:46.966Z,20.80
2022-12-11T02:02:34.025Z,27.23
2022-12-11T02:05:04.346Z,23.03
2022-12-11T02:07:41.602Z,26.57
2022-12-11T02:10:10.226Z,22.00
2022-12-11T02:12:48.818Z,23.50
2022-12-11T02:15:38.515Z,21.63
2022-12-11T02:18:27.756Z,23.70
2022-12-11T02:21:11.356Z,25.20
2022-12-11T02:23:54.166Z,21.87
2022-12-11T02:26:47.696Z,21.30
2022-12-11T02:29:26.564Z,22.70
2022-12-11T02:32:05.541Z,23.53
2022-12-11T02:34:48.041Z,24.73
2022-12-11T02:37:24.032Z,26.17
2022-12-11T02:39:54.662Z,24.13
2022-12-11T02:42:25.242Z,23.30
2022-12-11T02:44:55.101Z,24.67
2022-12-11T02:47:23.855Z,25.20
2022-12-11T02:49:52.331Z,25.40
2022-12-11T02:52:24.176Z,25.93
2022-12-11T02:54:54.462Z,25.60
2022-12-11T02:57:45.138Z,26.30
2022-12-11T03:00:13.823Z,25.57
2022-12-11T03:02:41.889Z,23.17
2022-12-11T03:05:11.506Z,26.50
2022-12-11T03:07:43.021Z,25.57
2022-12-11T03:10:16.550Z,24.40
2022-12-11T03:12:51.793Z,22.50
2022-12-11T03:15:24.406Z,25.97
2022-12-11T03:18:11.357Z,21.40
2022-12-11T03:20:46.436Z,26.17
2022-12-11T03:23:51.423Z,21.67
2022-12-11T03:26:20.646Z,27.60
2022-12-11T03:29:16.721Z,26.70
2022-12-11T03:31:59.532Z,23.73
2022-12-11T03:35:06.410Z,26.03
2022-12-11T03:37:37.486Z,25.37
2022-12-11T03:40:11.216Z,24.30
2022-12-11T03:42:40.550Z,23.60
2022-12-11T03:45:10.173Z,23.50
2022-12-11T03:47:38.545Z,23.13
2022-12-11T03:50:09.783Z,23.57
2022-12-11T03:52:44.023Z,22.97
2022-12-11T03:55:16.757Z,25.70
2022-12-11T03:57:43.996Z,23.50
2022-12-11T04:00:16.923Z,21.40
2022-12-11T04:02:45.189Z,22.10
2022-12-11T04:05:12.710Z,21.27
2022-12-11T04:07:39.886Z,23.30
2022-12-11T04:10:07.290Z,24.40
2022-12-11T04:12:34.287Z,23.57
2022-12-11T04:15:04.228Z,20.10
2022-12-11T04:17:55.887Z,21.57
2022-12-11T04:20:41.368Z,19.47
2022-12-11T04:23:34.222Z,19.23
2022-12-11T04:26:11.931Z,21.30
2022-12-11T04:28:40.086Z,19.90
2022-12-11T04:31:14.796Z,18.63
2022-12-11T04:33:42.642Z,20.53
2022-12-11T04:36:11.440Z,21.50
2022-12-11T04:38:38.450Z,18.77
2022-12-11T04:41:13.126Z,16.77
2022-12-11T04:43:40.461Z,19.27
2022-12-11T04:46:17.847Z,18.97
2022-12-11T04:48:46.209Z,15.63
2022-12-11T04:51:14.626Z,18.40
2022-12-11T04:53:42.894Z,18.20
2022-12-11T04:56:13.359Z,15.80
2022-12-11T04:58:42.758Z,16.00
2022-12-11T05:01:14.580Z,19.73
2022-12-11T05:03:42.403Z,18.20
2022-12-11T05:06:11.387Z,18.37
2022-12-11T05:08:41.163Z,18.60
2022-12-11T05:11:12.070Z,16.50
2022-12-11T05:13:39.843Z,17.73
2022-12-11T05:16:12.661Z,19.03
2022-12-11T05:18:40.164Z,18.03
2022-12-11T05:21:11.986Z,15.70
2022-12-11T05:23:39.698Z,14.63
2022-12-11T05:26:12.731Z,14.17
2022-12-11T05:28:40.750Z,17.37
2022-12-11T05:31:20.018Z,16.13
2022-12-11T05:33:49.049Z,16.90
2022-12-11T05:36:22.724Z,17.00
2022-12-11T05:38:51.054Z,17.53
2022-12-11T05:41:21.457Z,18.60
2022-12-11T05:43:48.910Z,15.80
2022-12-11T05:46:21.030Z,18.40
2022-12-11T05:48:52.003Z,15.97
2022-12-11T05:51:19.754Z,19.80
2022-12-11T05:53:49.613Z,15.87
2022-12-11T05:56:27.022Z,17.40
2022-12-11T05:58:55.909Z,17.73
2022-12-11T06:01:26.327Z,16.33
2022-12-11T06:03:55.684Z,18.03
2022-12-11T06:06:24.247Z,18.80
2022-12-11T06:08:53.673Z,19.13
2022-12-11T06:11:24.185Z,17.63
2022-12-11T06:13:52.491Z,18.47
2022-12-11T06:16:21.036Z,13.67
2022-12-11T06:18:48.643Z,18.40
2022-12-11T06:21:25.035Z,16.20
2022-12-11T06:23:56.780Z,19.50
2022-12-11T06:26:25.398Z,17.10
2022-12-11T06:28:52.434Z,17.97
2022-12-11T06:31:20.737Z,15.30
2022-12-11T06:33:48.463Z,16.77
2022-12-11T06:36:19.495Z,16.07
2022-12-11T06:38:46.484Z,17.67
2022-12-11T06:41:14.846Z,18.07
2022-12-11T06:43:43.438Z,14.97
2022-12-11T06:46:14.680Z,16.13
2022-12-11T06:48:42.432Z,15.37
2022-12-11T06:51:16.822Z,15.17
2022-12-11T06:53:44.429Z,15.50
2022-12-11T06:56:15.679Z,15.83
2022-12-11T06:58:44.224Z,15.87
2022-12-11T07:01:24.310Z,15.97
2022-12-11T07:03:54.812Z,13.50
2022-12-11T07:06:22.903Z,16.53
2022-12-11T07:08:49.866Z,14.47
2022-12-11T07:11:19.639Z,16.57
2022-12-11T07:13:47.303Z,14.60
2022-12-11T07:16:17.199Z,15.33
2022-12-11T07:18:49.774Z,15.63
2022-12-11T07:21:18.600Z,16.40
2022-12-11T07:23:45.941Z,13.87
2022-12-11T07:26:16.742Z,14.40
2022-12-11T07:28:44.522Z,15.20
2022-12-11T07:31:16.531Z,15.60
2022-12-11T07:33:43.840Z,13.07
2022-12-11T07:36:14.307Z,15.23
2022-12-11T07:38:41.943Z,15.50
2022-12-11T07:41:14.087Z,15.10
2022-12-11T07:43:42.901Z,15.77
2022-12-11T07:46:23.794Z,14.97
2022-12-11T07:48:50.932Z,16.23
2022-12-11T07:51:21.113Z,15.47
2022-12-11T07:53:50.621Z,15.40
2022-12-11T07:56:19.067Z,14.27
2022-12-11T07:58:47.236Z,16.53
2022-12-11T08:01:21.758Z,18.37
2022-12-11T08:03:51.109Z,18.43
2022-12-11T08:06:21.497Z,15.13
2022-12-11T08:08:48.407Z,15.90
2022-12-11T08:11:15.736Z,14.87
2022-12-11T08:13:44.611Z,15.77
2022-12-11T08:16:15.728Z,18.83
2022-12-11T08:18:45.102Z,17.87
2022-12-11T08:21:25.051Z,15.30
2022-12-11T08:23:53.856Z,13.40
2022-12-11T08:26:29.221Z,15.20
2022-12-11T08:28:56.653Z,15.50
2022-12-11T08:31:25.125Z,15.50
2022-12-11T08:33:53.484Z,16.53
2022-12-11T08:38:26.872Z,16.60
2022-12-11T08:40:53.779Z,17.60
2022-12-11T08:43:20.692Z,16.20
2022-12-11T08:45:47.708Z,17.80
2022-12-11T08:48:14.802Z,18.00
2022-12-11T08:50:42.109Z,14.83
2022-12-11T08:53:09.142Z,17.53
2022-12-11T08:55:36.125Z,18.10
2022-12-11T08:58:03.447Z,14.93
2022-12-11T09:00:30.420Z,17.67
2022-12-11T09:02:57.360Z,19.93
2022-12-11T09:05:24.404Z,17.53
2022-12-11T09:07:51.524Z,13.57
2022-12-11T09:10:18.900Z,16.90
2022-12-11T09:12:45.788Z,16.97
2022-12-11T09:15:13.235Z,15.77
2022-12-11T09:17:40.727Z,16.53
2022-12-11T09:20:08.555Z,18.77
2022-12-11T09:22:35.472Z,15.30
2022-12-11T09:25:02.479Z,18.90
2022-12-11T09:27:29.419Z,15.20
2022-12-11T09:29:56.423Z,18.93
2022-12-11T09:32:23.380Z,18.40
2022-12-11T09:34:51.946Z,16.73
2022-12-11T09:37:18.957Z,18.70
2022-12-11T09:39:45.956Z,17.60
2022-12-11T09:42:28.369Z,16.57
2022-12-11T09:44:58.692Z,15.73
2022-12-11T09:47:36.597Z,15.73
2022-12-11T09:50:21.542Z,17.30
2022-12-11T09:52:57.819Z,16.70
2022-12-11T09:55:31.484Z,16.93
2022-12-11T09:58:17.661Z,15.30
2022-12-11T10:00:53.542Z,16.63
2022-12-11T10:03:29.869Z,15.70
2022-12-11T10:06:22.652Z,16.20
2022-12-11T10:09:35.430Z,13.80
2022-12-11T10:12:23.845Z,17.60
2022-12-11T10:15:15.910Z,16.10
2022-12-11T10:17:47.203Z,15.17
2022-12-11T10:20:39.540Z,14.90
2022-12-11T10:23:10.735Z,17.17
2022-12-11T10:25:46.439Z,18.07
2022-12-11T10:28:16.459Z,16.80
2022-12-11T10:31:20.278Z,12.50
2022-12-11T10:33:50.295Z,17.03
2022-12-11T10:36:34.935Z,17.87
2022-12-11T10:39:02.411Z,17.57
2022-12-11T10:41:42.912Z,16.53
2022-12-11T10:44:23.236Z,16.80
2022-12-11T10:47:11.967Z,15.87
2022-12-11T10:49:52.540Z,14.30
2022-12-11T10:52:24.624Z,16.63
2022-12-11T10:55:23.249Z,12.60
2022-12-11T10:58:04.794Z,14.27
2022-12-11T11:00:39.202Z,13.07
2022-12-11T11:03:21.852Z,15.87
2022-12-11T11:05:50.773Z,14.03
2022-12-11T11:08:22.816Z,33.30
2022-12-11T11:11:01.867Z,15.10
2022-12-11T11:13:31.697Z,16.10
2022-12-11T11:16:13.292Z,14.83
2022-12-11T11:18:43.587Z,13.57
2022-12-11T11:21:20.863Z,16.40
2022-12-11T11:23:53.237Z,13.40
2022-12-11T11:26:23.124Z,14.47
2022-12-11T11:28:55.275Z,15.27
2022-12-11T11:31:33.084Z,14.80
2022-12-11T11:34:08.302Z,16.47
2022-12-11T11:36:37.629Z,14.40
2022-12-11T11:39:25.945Z,16.47
2022-12-11T11:42:14.020Z,12.80
2022-12-11T11:45:07.390Z,12.80
2022-12-11T11:47:46.175Z,11.17
2022-12-11T11:50:25.980Z,13.50
2022-12-11T11:53:25.031Z,12.73
2022-12-11T11:56:15.702Z,13.67
2022-12-11T11:58:50.194Z,10.30
2022-12-11T12:01:20.256Z,12.57
2022-12-11T12:03:49.783Z,13.73
2022-12-11T12:06:25.782Z,12.67
2022-12-11T12:09:15.384Z,17.23
2022-12-11T12:12:26.597Z,13.93
2022-12-11T12:15:18.529Z,13.00
2022-12-11T12:17:56.043Z,12.10
2022-12-11T12:20:54.418Z,13.27
2022-12-11T12:23:56.205Z,13.60
2022-12-11T12:26:54.277Z,12.13
2022-12-11T12:29:53.631Z,13.40
2022-12-11T12:32:44.509Z,11.13
2022-12-11T12:35:37.845Z,11.40
2022-12-11T12:38:55.070Z,11.83
2022-12-11T12:41:30.875Z,11.93
2022-12-11T12:44:14.509Z,11.50
2022-12-11T12:47:09.995Z,13.27
2022-12-11T12:49:47.467Z,14.00
2022-12-11T12:52:21.476Z,14.43
2022-12-11T12:55:16.251Z,11.93
2022-12-11T12:57:57.999Z,13.50
2022-12-11T13:00:42.382Z,13.17
2022-12-11T13:03:21.621Z,13.30
2022-12-11T13:06:02.449Z,13.63
2022-12-11T13:08:50.934Z,11.50
2022-12-11T13:11:20.850Z,14.23
2022-12-11T13:14:03.217Z,15.53
2022-12-11T13:16:42.176Z,13.57
2022-12-11T13:19:25.825Z,13.77
2022-12-11T13:22:15.723Z,15.60
2022-12-11T13:25:05.035Z,13.90
2022-12-11T13:27:35.055Z,13.90
2022-12-11T13:30:24.664Z,14.90
2022-12-11T13:33:02.740Z,14.97
2022-12-11T13:35:32.752Z,16.00
2022-12-11T13:38:19.201Z,16.83
2022-12-11T13:40:53.895Z,13.70
2022-12-11T13:43:26.671Z,12.30
2022-12-11T13:46:04.036Z,13.83
2022-12-11T13:48:39.031Z,14.67
2022-12-11T13:51:07.614Z,11.70
2022-12-11T13:53:34.546Z,12.40
2022-12-11T13:56:05.486Z,12.40
2022-12-11T13:58:39.640Z,11.83
2022-12-11T14:01:13.584Z,11.20
2022-12-11T14:04:06.975Z,12.47
2022-12-11T14:06:36.560Z,12.90
2022-12-11T14:09:05.940Z,8.50
2022-12-11T14:11:42.543Z,14.13
2022-12-11T14:14:28.685Z,11.50
2022-12-11T14:16:56.574Z,11.17
2022-12-11T14:19:25.228Z,9.17
2022-12-11T14:22:05.680Z,10.27
2022-12-11T14:24:33.291Z,11.70
2022-12-11T14:27:00.345Z,10.47
2022-12-11T14:29:31.719Z,9.27
2022-12-11T14:32:07.515Z,8.77
2022-12-11T14:34:45.960Z,10.60
2022-12-11T14:37:16.819Z,10.50
2022-12-11T14:40:09.924Z,10.23
2022-12-11T14:42:44.906Z,11.33
2022-12-11T14:45:25.757Z,12.80
2022-12-11T14:47:55.407Z,12.50
2022-12-11T14:50:47.670Z,10.50
2022-12-11T14:53:18.322Z,11.30
2022-12-11T14:55:49.126Z,12.20
2022-12-11T14:58:27.695Z,11.40
2022-12-11T15:01:08.384Z,11.30
2022-12-11T15:03:41.285Z,13.03
2022-12-11T15:06:29.131Z,14.13
2022-12-11T15:08:56.810Z,12.80
2022-12-11T15:11:31.076Z,13.70
2022-12-11T15:14:01.225Z,13.83
2022-12-11T15:16:33.897Z,13.50
2022-12-11T15:19:02.243Z,14.63
2022-12-11T15:21:32.901Z,13.50
2022-12-11T15:24:06.129Z,15.90
2022-12-11T15:26:46.550Z,12.50
2022-12-11T15:29:34.586Z,16.43
2022-12-11T15:32:10.404Z,15.70
2022-12-11T15:34:48.171Z,14.50
2022-12-11T15:37:34.040Z,14.87
2022-12-11T15:40:03.066Z,15.47
2022-12-11T15:42:42.657Z,14.13
2022-12-11T15:45:19.303Z,15.80
2022-12-11T15:47:48.024Z,15.70
2022-12-11T15:50:22.644Z,16.73
2022-12-11T15:52:51.818Z,17.30
2022-12-11T15:55:20.566Z,16.77
2022-12-11T15:58:14.483Z,17.30
2022-12-11T16:00:41.377Z,20.37
2022-12-11T16:03:15.024Z,18.80
2022-12-11T16:05:42.944Z,19.23
2022-12-11T16:08:15.490Z,20.30
2022-12-11T16:10:44.340Z,20.70
2022-12-11T16:13:12.466Z,21.27
2022-12-11T16:15:43.397Z,18.93
2022-12-11T16:18:18.266Z,21.77
2022-12-11T16:20:47.019Z,22.43
2022-12-11T16:23:16.581Z,19.73
2022-12-11T16:25:45.837Z,20.27
2022-12-11T16:28:16.506Z,20.40
2022-12-11T16:30:44.804Z,21.30
2022-12-11T16:33:13.361Z,21.97
2022-12-11T16:35:42.904Z,17.70
2022-12-11T16:38:11.412Z,19.90
2022-12-11T16:40:39.135Z,15.30
2022-12-11T16:43:06.584Z,14.50
2022-12-11T16:45:34.199Z,13.77
2022-12-11T16:48:05.530Z,14.00
2022-12-11T16:50:32.579Z,14.67
2022-12-11T16:52:59.714Z,14.70
2022-12-11T16:55:26.724Z,15.33
2022-12-11T16:57:54.538Z,16.30
2022-12-11T17:00:21.500Z,12.30
2022-12-11T17:02:49.062Z,13.90
2022-12-11T17:05:16.229Z,10.53
2022-12-11T17:07:43.169Z,13.13
2022-12-11T17:10:10.500Z,13.63
2022-12-11T17:12:37.481Z,15.23
2022-12-11T17:15:05.153Z,9.47
2022-12-11T17:17:33.252Z,15.80
2022-12-11T17:20:00.255Z,15.20
2022-12-11T17:22:27.293Z,16.33
2022-12-11T17:24:54.240Z,14.43
2022-12-11T17:27:21.116Z,13.20
2022-12-11T17:29:49.863Z,13.50
2022-12-11T17:32:17.761Z,13.37
2022-12-11T17:34:46.020Z,12.03
2022-12-11T17:37:13.127Z,11.60
2022-12-11T17:39:40.507Z,10.87
2022-12-11T17:42:07.792Z,9.87
2022-12-11T17:44:35.074Z,10.47
2022-12-11T17:47:07.545Z,9.60
2022-12-11T17:49:41.168Z,9.73
2022-12-11T17:52:08.295Z,9.93
2022-12-11T17:54:35.446Z,10.67
2022-12-11T17:57:02.561Z,10.70
2022-12-11T17:59:29.617Z,9.40
2022-12-11T18:01:56.693Z,13.07
2022-12-11T18:04:24.375Z,11.90
2022-12-11T18:06:51.302Z,11.50
2022-12-11T18:09:18.354Z,14.10
2022-12-11T18:11:45.533Z,15.57
2022-12-11T18:14:16.948Z,13.47
2022-12-11T18:16:45.074Z,13.50
2022-12-11T18:19:12.877Z,12.33
2022-12-11T18:21:44.006Z,13.77
2022-12-11T18:24:11.000Z,13.00
2022-12-11T18:26:38.293Z,14.90
2022-12-11T18:29:06.878Z,15.10
2022-12-11T18:31:36.377Z,13.77
2022-12-11T18:34:08.336Z,14.30
2022-12-11T18:36:35.295Z,16.40
2022-12-11T18:39:03.739Z,16.43
2022-12-11T18:41:30.668Z,15.30
2022-12-11T18:44:06.527Z,15.70
2022-12-11T18:46:36.945Z,14.60
2022-12-11T18:49:03.913Z,12.87
2022-12-11T18:51:30.934Z,13.03
2022-12-11T18:53:58.199Z,12.50
2022-12-11T18:56:25.513Z,14.33
2022-12-11T18:58:53.160Z,13.63
2022-12-11T19:01:28.957Z,14.53
2022-12-11T19:04:04.424Z,16.10
2022-12-11T19:06:33.392Z,14.83
2022-12-11T19:09:00.800Z,15.63
2022-12-11T19:11:31.728Z,16.57
2022-12-11T19:13:59.355Z,15.70
2022-12-11T19:16:42.104Z,15.30
2022-12-11T19:19:15.440Z,15.27
2022-12-11T19:21:43.373Z,14.37
2022-12-11T19:24:15.929Z,17.07
2022-12-11T19:26:46.380Z,12.90
2022-12-11T19:29:24.521Z,14.57
2022-12-11T19:31:52.195Z,16.73
2022-12-11T19:34:19.223Z,13.73
2022-12-11T19:36:46.714Z,15.03
2022-12-11T19:39:14.574Z,16.80
2022-12-11T19:41:42.150Z,17.47
2022-12-11T19:44:10.065Z,14.80
2022-12-11T19:46:37.509Z,16.60
2022-12-11T19:49:05.799Z,17.00
2022-12-11T19:51:40.834Z,16.93
2022-12-11T19:54:13.421Z,16.40
2022-12-11T19:56:40.612Z,15.67
2022-12-11T19:59:12.112Z,16.00
2022-12-11T20:01:39.192Z,15.80
2022-12-11T20:04:13.238Z,15.80
2022-12-11T20:06:44.189Z,16.00
2022-12-11T20:09:12.732Z,15.47
2022-12-11T20:11:44.896Z,17.10
2022-12-11T20:14:33.024Z,17.60
2022-12-11T20:17:15.532Z,14.13
2022-12-11T20:19:51.048Z,13.67
2022-12-11T20:22:18.867Z,14.17
2022-12-11T20:24:46.403Z,15.77
2022-12-11T20:27:13.704Z,14.70
2022-12-11T20:29:42.142Z,17.47
2022-12-11T20:32:11.575Z,13.87
2022-12-11T20:34:39.255Z,15.47
2022-12-11T20:37:06.253Z,15.63
2022-12-11T20:39:37.317Z,15.07
2022-12-11T20:42:05.418Z,14.00
2022-12-11T20:44:32.618Z,15.53
2022-12-11T20:47:00.785Z,15.37
2022-12-11T20:49:35.921Z,13.43
2022-12-11T20:52:03.434Z,11.40
2022-12-11T20:54:30.692Z,9.60
2022-12-11T20:56:58.128Z,4.60
2022-12-11T20:59:26.513Z,8.07
2022-12-11T21:01:53.714Z,7.33
2022-12-11T21:04:20.774Z,5.77
2022-12-11T21:06:55.426Z,8.67
2022-12-11T21:09:26.422Z,7.67
2022-12-11T21:11:53.627Z,6.70
2022-12-11T21:14:20.874Z,5.03
2022-12-11T21:16:47.999Z,5.50
2022-12-11T21:19:20.340Z,6.20
2022-12-11T21:21:48.126Z,7.00
2022-12-11T21:24:20.783Z,8.20
2022-12-11T21:26:48.651Z,7.23
2022-12-11T21:29:16.837Z,7.00
2022-12-11T21:31:44.256Z,7.70
2022-12-11T21:34:11.319Z,7.80
2022-12-11T21:36:38.379Z,5.70
2022-12-11T21:39:06.534Z,8.10
2022-12-11T21:41:33.700Z,8.13
2022-12-11T21:46:48.140Z,5.90
2022-12-11T21:49:15.292Z,8.87
2022-12-11T21:51:47.018Z,7.80
2022-12-11T21:54:18.578Z,8.90
2022-12-11T21:56:47.172Z,9.73
2022-12-11T21:59:14.646Z,8.40
2022-12-11T22:01:46.450Z,9.17
2022-12-11T22:04:15.620Z,7.13
2022-12-11T22:06:43.709Z,10.17
2022-12-11T22:09:13.102Z,8.90
2022-12-11T22:11:42.175Z,8.37
2022-12-11T22:14:13.359Z,9.60
2022-12-11T22:16:40.628Z,9.57
2022-12-11T22:19:07.650Z,8.53
2022-12-11T22:21:35.126Z,10.50
2022-12-11T22:24:02.338Z,7.43
2022-12-11T22:26:30.100Z,8.33
2022-12-11T22:28:57.298Z,9.50
2022-12-11T22:31:26.951Z,9.53
2022-12-11T22:33:55.446Z,8.97
2022-12-11T22:36:25.866Z,9.50
2022-12-11T22:38:53.004Z,7.67
2022-12-11T22:41:30.587Z,9.23
2022-12-11T22:43:58.495Z,9.70
2022-12-11T22:46:30.136Z,9.73
2022-12-11T22:48:58.906Z,8.33
2022-12-11T22:51:26.026Z,9.23
2022-12-11T22:53:53.002Z,7.87
2022-12-11T22:56:20.445Z,9.40
2022-12-11T22:58:47.712Z,10.80
2022-12-11T23:01:20.372Z,9.20
2022-12-11T23:03:48.543Z,10.03
2022-12-11T23:06:18.512Z,11.50
2022-12-11T23:08:46.429Z,10.37
2022-12-11T23:11:26.774Z,11.00
2022-12-11T23:13:55.376Z,10.27
2022-12-11T23:16:25.181Z,10.63
2022-12-11T23:18:53.411Z,11.83
2022-12-11T23:21:21.942Z,10.40
2022-12-11T23:23:49.597Z,12.10
2022-12-11T23:26:19.698Z,12.07
2022-12-11T23:28:47.944Z,10.83
2022-12-11T23:31:16.388Z,12.00
2022-12-11T23:33:43.387Z,11.07
2022-12-11T23:36:10.788Z,12.77
2022-12-11T23:38:38.411Z,11.40
2022-12-11T23:41:07.451Z,10.90
2022-12-11T23:43:36.246Z,10.07
2022-12-11T23:46:05.447Z,11.50
2022-12-11T23:48:32.748Z,11.80
2022-12-11T23:51:01.613Z,9.83
2022-12-11T23:53:30.418Z,12.30
2022-12-11T23:56:03.887Z,11.97
2022-12-11T23:58:30.877Z,11.83
